Tatitlek, Alaska
Current Conditions -  °F | °C
As of 11:36 AM on Thursday 20 Nov 2014 (Local Time) from PAVD Reporting Station
Broken Clouds Broken Clouds  
Wind Chill: 34°   Ceiling: 10000
Heat Index: 34°   Visibility: 10mi
Dew Point: 28°   Wind: 0mph
Humidity: 81%   Direction: NA
Pressure: 29.51"   Gusts: NA
Location:  60.88°N, 146.68°W
Report Text: PAVD 202036Z 00000KT 10SM SCT065 BKN100 BKN150 01/M02 A2951 RMK AO1 1947Z WEA: NONE TWR WND 33005KT
Loading
Personal Weather Stations






























Interactive Weather Map New forecast layout! Learn more

10-Day Weather Forecast

Advertisements
Track Severe Weather on mobile